sensor_id;sensor_type;location;lat;lon;timestamp;temperature;humidity
54192;DHT22;40101;53.002;6.488;2023-02-01T00:00:20;5.80;99.90
54192;DHT22;40101;53.002;6.488;2023-02-01T00:02:45;5.80;99.90
54192;DHT22;40101;53.002;6.488;2023-02-01T00:05:11;5.80;99.90
54192;DHT22;40101;53.002;6.488;2023-02-01T00:07:37;6.50;99.90
54192;DHT22;40101;53.002;6.488;2023-02-01T00:10:04;5.90;99.90
54192;DHT22;40101;53.002;6.488;2023-02-01T00:12:31;5.90;99.90
54192;DHT22;40101;53.002;6.488;2023-02-01T00:14:59;5.90;99.90
54192;DHT22;40101;53.002;6.488;2023-02-01T00:17:25;5.90;99.90
54192;DHT22;40101;53.002;6.488;2023-02-01T00:19:51;5.90;99.90
54192;DHT22;40101;53.002;6.488;2023-02-01T00:22:16;5.90;99.90
54192;DHT22;40101;53.002;6.488;2023-02-01T00:24:45;5.90;99.90
54192;DHT22;40101;53.002;6.488;2023-02-01T00:27:24;5.90;99.90
54192;DHT22;40101;53.002;6.488;2023-02-01T00:29:49;6.60;99.90
54192;DHT22;40101;53.002;6.488;2023-02-01T00:32:24;6.00;99.90
54192;DHT22;40101;53.002;6.488;2023-02-01T00:34:50;5.90;99.90
54192;DHT22;40101;53.002;6.488;2023-02-01T00:37:15;6.20;99.90
54192;DHT22;40101;53.002;6.488;2023-02-01T00:40:06;5.90;99.90
54192;DHT22;40101;53.002;6.488;2023-02-01T00:42:32;5.90;99.90
54192;DHT22;40101;53.002;6.488;2023-02-01T00:44:57;5.60;99.90
54192;DHT22;40101;53.002;6.488;2023-02-01T00:47:23;6.30;99.90
54192;DHT22;40101;53.002;6.488;2023-02-01T00:49:57;6.50;99.90
54192;DHT22;40101;53.002;6.488;2023-02-01T00:52:23;5.90;99.90
54192;DHT22;40101;53.002;6.488;2023-02-01T00:54:51;5.90;99.90
54192;DHT22;40101;53.002;6.488;2023-02-01T00:57:16;5.90;99.90
54192;DHT22;40101;53.002;6.488;2023-02-01T00:59:42;6.50;99.90
54192;DHT22;40101;53.002;6.488;2023-02-01T01:02:08;5.90;99.90
54192;DHT22;40101;53.002;6.488;2023-02-01T01:04:36;6.00;99.90
54192;DHT22;40101;53.002;6.488;2023-02-01T01:07:03;7.00;99.90
54192;DHT22;40101;53.002;6.488;2023-02-01T01:09:28;5.80;99.90
54192;DHT22;40101;53.002;6.488;2023-02-01T01:11:54;6.00;99.90
54192;DHT22;40101;53.002;6.488;2023-02-01T01:14:24;6.00;99.90
54192;DHT22;40101;53.002;6.488;2023-02-01T01:16:52;7.40;99.90
54192;DHT22;40101;53.002;6.488;2023-02-01T01:19:26;6.00;99.90
54192;DHT22;40101;53.002;6.488;2023-02-01T01:21:52;6.20;99.90
54192;DHT22;40101;53.002;6.488;2023-02-01T01:24:17;5.70;99.90
54192;DHT22;40101;53.002;6.488;2023-02-01T01:26:43;6.00;99.90
54192;DHT22;40101;53.002;6.488;2023-02-01T01:29:10;6.10;99.90
54192;DHT22;40101;53.002;6.488;2023-02-01T01:31:36;6.00;99.90
54192;DHT22;40101;53.002;6.488;2023-02-01T01:34:02;6.00;99.90
54192;DHT22;40101;53.002;6.488;2023-02-01T01:36:28;6.10;99.90
54192;DHT22;40101;53.002;6.488;2023-02-01T01:38:54;6.50;99.90
54192;DHT22;40101;53.002;6.488;2023-02-01T01:41:22;6.10;99.90
54192;DHT22;40101;53.002;6.488;2023-02-01T01:44:03;6.10;99.90
54192;DHT22;40101;53.002;6.488;2023-02-01T01:46:38;6.20;99.90
54192;DHT22;40101;53.002;6.488;2023-02-01T01:49:09;6.20;99.90
54192;DHT22;40101;53.002;6.488;2023-02-01T01:51:40;6.20;99.90
54192;DHT22;40101;53.002;6.488;2023-02-01T01:54:21;6.20;99.90
54192;DHT22;40101;53.002;6.488;2023-02-01T01:56:56;6.10;99.90
54192;DHT22;40101;53.002;6.488;2023-02-01T01:59:24;6.10;99.90
54192;DHT22;40101;53.002;6.488;2023-02-01T02:01:51;6.10;99.90
54192;DHT22;40101;53.002;6.488;2023-02-01T02:04:17;6.10;99.90
54192;DHT22;40101;53.002;6.488;2023-02-01T02:07:03;6.00;99.90
54192;DHT22;40101;53.002;6.488;2023-02-01T02:09:29;6.00;99.90
54192;DHT22;40101;53.002;6.488;2023-02-01T02:11:55;5.90;99.90
54192;DHT22;40101;53.002;6.488;2023-02-01T02:14:22;5.90;99.90
54192;DHT22;40101;53.002;6.488;2023-02-01T02:31:40;5.80;99.90
54192;DHT22;40101;53.002;6.488;2023-02-01T02:34:34;5.80;99.90
54192;DHT22;40101;53.002;6.488;2023-02-01T02:37:33;5.80;99.90
54192;DHT22;40101;53.002;6.488;2023-02-01T02:40:14;5.70;99.90
54192;DHT22;40101;53.002;6.488;2023-02-01T02:42:52;5.70;99.90
54192;DHT22;40101;53.002;6.488;2023-02-01T02:45:47;6.20;99.90
54192;DHT22;40101;53.002;6.488;2023-02-01T02:48:44;5.70;99.90
54192;DHT22;40101;53.002;6.488;2023-02-01T02:51:32;5.70;99.90
54192;DHT22;40101;53.002;6.488;2023-02-01T02:54:26;5.80;99.90
54192;DHT22;40101;53.002;6.488;2023-02-01T02:57:22;5.80;99.90
54192;DHT22;40101;53.002;6.488;2023-02-01T03:00:12;5.80;99.90
54192;DHT22;40101;53.002;6.488;2023-02-01T03:02:57;5.80;99.90
54192;DHT22;40101;53.002;6.488;2023-02-01T03:05:45;5.80;99.90
54192;DHT22;40101;53.002;6.488;2023-02-01T03:08:13;5.80;99.90
54192;DHT22;40101;53.002;6.488;2023-02-01T03:11:12;5.90;99.90
54192;DHT22;40101;53.002;6.488;2023-02-01T03:13:56;5.90;99.90
54192;DHT22;40101;53.002;6.488;2023-02-01T03:16:46;5.90;99.90
54192;DHT22;40101;53.002;6.488;2023-02-01T03:19:20;5.90;99.90
54192;DHT22;40101;53.002;6.488;2023-02-01T03:21:50;5.90;99.90
54192;DHT22;40101;53.002;6.488;2023-02-01T03:24:23;6.00;99.90
54192;DHT22;40101;53.002;6.488;2023-02-01T03:29:44;6.00;99.90
54192;DHT22;40101;53.002;6.488;2023-02-01T03:32:14;6.00;99.90
54192;DHT22;40101;53.002;6.488;2023-02-01T03:34:40;6.50;99.90
54192;DHT22;40101;53.002;6.488;2023-02-01T03:37:09;6.10;99.90
54192;DHT22;40101;53.002;6.488;2023-02-01T03:40:04;6.00;99.90
54192;DHT22;40101;53.002;6.488;2023-02-01T03:42:35;6.00;99.90
54192;DHT22;40101;53.002;6.488;2023-02-01T03:45:24;6.00;99.90
54192;DHT22;40101;53.002;6.488;2023-02-01T03:47:56;6.00;99.90
54192;DHT22;40101;53.002;6.488;2023-02-01T03:50:23;6.00;99.90
54192;DHT22;40101;53.002;6.488;2023-02-01T03:53:02;6.00;99.90
54192;DHT22;40101;53.002;6.488;2023-02-01T03:55:30;6.00;99.90
54192;DHT22;40101;53.002;6.488;2023-02-01T04:00:37;6.10;99.90
54192;DHT22;40101;53.002;6.488;2023-02-01T04:03:04;6.10;99.90
54192;DHT22;40101;53.002;6.488;2023-02-01T04:05:30;6.10;99.90
54192;DHT22;40101;53.002;6.488;2023-02-01T04:07:57;6.10;99.90
54192;DHT22;40101;53.002;6.488;2023-02-01T04:10:22;6.10;99.90
54192;DHT22;40101;53.002;6.488;2023-02-01T04:12:48;6.10;99.90
54192;DHT22;40101;53.002;6.488;2023-02-01T04:15:13;6.10;99.90
54192;DHT22;40101;53.002;6.488;2023-02-01T04:17:39;6.10;99.90
54192;DHT22;40101;53.002;6.488;2023-02-01T04:20:05;6.10;99.90
54192;DHT22;40101;53.002;6.488;2023-02-01T04:22:31;6.00;99.90
54192;DHT22;40101;53.002;6.488;2023-02-01T04:24:57;6.00;99.90
54192;DHT22;40101;53.002;6.488;2023-02-01T04:27:23;6.00;99.90
54192;DHT22;40101;53.002;6.488;2023-02-01T04:29:49;6.00;99.90
54192;DHT22;40101;53.002;6.488;2023-02-01T04:32:15;5.90;99.90
54192;DHT22;40101;53.002;6.488;2023-02-01T04:34:41;6.00;99.90
54192;DHT22;40101;53.002;6.488;2023-02-01T04:37:07;5.90;99.90
54192;DHT22;40101;53.002;6.488;2023-02-01T04:39:33;5.90;99.90
54192;DHT22;40101;53.002;6.488;2023-02-01T04:41:58;6.00;99.90
54192;DHT22;40101;53.002;6.488;2023-02-01T04:44:24;6.00;99.90
54192;DHT22;40101;53.002;6.488;2023-02-01T04:46:50;6.00;99.90
54192;DHT22;40101;53.002;6.488;2023-02-01T04:49:15;6.00;99.90
54192;DHT22;40101;53.002;6.488;2023-02-01T04:51:41;6.00;99.90
54192;DHT22;40101;53.002;6.488;2023-02-01T04:54:08;6.00;99.90
54192;DHT22;40101;53.002;6.488;2023-02-01T04:56:34;6.00;99.90
54192;DHT22;40101;53.002;6.488;2023-02-01T04:59:03;6.00;99.90
54192;DHT22;40101;53.002;6.488;2023-02-01T05:01:29;6.00;99.90
54192;DHT22;40101;53.002;6.488;2023-02-01T05:03:55;6.00;99.90
54192;DHT22;40101;53.002;6.488;2023-02-01T05:06:21;6.00;99.90
54192;DHT22;40101;53.002;6.488;2023-02-01T05:08:47;5.90;99.90
54192;DHT22;40101;53.002;6.488;2023-02-01T05:11:13;5.90;99.90
54192;DHT22;40101;53.002;6.488;2023-02-01T05:13:58;5.90;99.90
54192;DHT22;40101;53.002;6.488;2023-02-01T05:16:24;5.90;99.90
54192;DHT22;40101;53.002;6.488;2023-02-01T05:18:50;5.90;99.90
54192;DHT22;40101;53.002;6.488;2023-02-01T05:21:16;6.00;99.90
54192;DHT22;40101;53.002;6.488;2023-02-01T05:23:41;6.00;99.90
54192;DHT22;40101;53.002;6.488;2023-02-01T05:26:40;6.00;99.90
54192;DHT22;40101;53.002;6.488;2023-02-01T05:29:07;6.00;99.90
54192;DHT22;40101;53.002;6.488;2023-02-01T05:31:33;6.00;99.90
54192;DHT22;40101;53.002;6.488;2023-02-01T05:33:59;6.00;99.90
54192;DHT22;40101;53.002;6.488;2023-02-01T05:36:27;6.00;99.90
54192;DHT22;40101;53.002;6.488;2023-02-01T05:38:53;6.10;99.90
54192;DHT22;40101;53.002;6.488;2023-02-01T05:41:19;6.10;99.90
54192;DHT22;40101;53.002;6.488;2023-02-01T05:43:44;6.10;99.90
54192;DHT22;40101;53.002;6.488;2023-02-01T05:46:10;6.10;99.90
54192;DHT22;40101;53.002;6.488;2023-02-01T05:48:41;6.10;99.90
54192;DHT22;40101;53.002;6.488;2023-02-01T05:51:07;6.20;99.90
54192;DHT22;40101;53.002;6.488;2023-02-01T05:53:33;6.20;99.90
54192;DHT22;40101;53.002;6.488;2023-02-01T05:55:59;6.20;99.90
54192;DHT22;40101;53.002;6.488;2023-02-01T05:58:24;6.20;99.90
54192;DHT22;40101;53.002;6.488;2023-02-01T06:00:50;6.20;99.90
54192;DHT22;40101;53.002;6.488;2023-02-01T06:03:16;6.20;99.90
54192;DHT22;40101;53.002;6.488;2023-02-01T06:05:44;6.20;99.90
54192;DHT22;40101;53.002;6.488;2023-02-01T06:08:09;6.20;99.90
54192;DHT22;40101;53.002;6.488;2023-02-01T06:10:35;6.30;99.90
54192;DHT22;40101;53.002;6.488;2023-02-01T06:13:01;6.30;99.90
54192;DHT22;40101;53.002;6.488;2023-02-01T06:15:29;6.30;99.90
54192;DHT22;40101;53.002;6.488;2023-02-01T06:17:54;6.50;99.90
54192;DHT22;40101;53.002;6.488;2023-02-01T06:20:20;6.20;99.90
54192;DHT22;40101;53.002;6.488;2023-02-01T06:22:46;6.20;99.90
54192;DHT22;40101;53.002;6.488;2023-02-01T06:25:12;6.20;99.90
54192;DHT22;40101;53.002;6.488;2023-02-01T06:27:37;6.20;99.90
54192;DHT22;40101;53.002;6.488;2023-02-01T06:30:05;6.20;99.90
54192;DHT22;40101;53.002;6.488;2023-02-01T06:32:31;6.10;99.90
54192;DHT22;40101;53.002;6.488;2023-02-01T06:34:59;6.10;99.90
54192;DHT22;40101;53.002;6.488;2023-02-01T06:37:26;6.10;99.90
54192;DHT22;40101;53.002;6.488;2023-02-01T06:39:59;6.20;99.90
54192;DHT22;40101;53.002;6.488;2023-02-01T06:42:25;5.60;99.90
54192;DHT22;40101;53.002;6.488;2023-02-01T06:44:51;6.00;99.90
54192;DHT22;40101;53.002;6.488;2023-02-01T06:47:17;6.00;99.90
54192;DHT22;40101;53.002;6.488;2023-02-01T06:49:42;6.00;99.90
54192;DHT22;40101;53.002;6.488;2023-02-01T06:52:08;6.40;99.90
54192;DHT22;40101;53.002;6.488;2023-02-01T06:54:34;6.00;99.90
54192;DHT22;40101;53.002;6.488;2023-02-01T06:57:03;6.30;99.90
54192;DHT22;40101;53.002;6.488;2023-02-01T06:59:28;6.00;99.90
54192;DHT22;40101;53.002;6.488;2023-02-01T07:01:54;6.10;99.90
54192;DHT22;40101;53.002;6.488;2023-02-01T07:04:20;6.00;99.90
54192;DHT22;40101;53.002;6.488;2023-02-01T07:06:51;6.20;99.90
54192;DHT22;40101;53.002;6.488;2023-02-01T07:09:16;6.40;99.90
54192;DHT22;40101;53.002;6.488;2023-02-01T07:11:42;6.10;99.90
54192;DHT22;40101;53.002;6.488;2023-02-01T07:14:12;6.30;99.90
54192;DHT22;40101;53.002;6.488;2023-02-01T07:16:48;6.10;99.90
54192;DHT22;40101;53.002;6.488;2023-02-01T07:19:28;6.10;99.90
54192;DHT22;40101;53.002;6.488;2023-02-01T07:21:57;5.80;99.90
54192;DHT22;40101;53.002;6.488;2023-02-01T07:24:26;6.20;99.90
54192;DHT22;40101;53.002;6.488;2023-02-01T07:26:56;6.20;99.90
54192;DHT22;40101;53.002;6.488;2023-02-01T07:29:22;6.20;99.90
54192;DHT22;40101;53.002;6.488;2023-02-01T07:31:47;5.90;99.90
54192;DHT22;40101;53.002;6.488;2023-02-01T07:34:19;6.40;99.90
54192;DHT22;40101;53.002;6.488;2023-02-01T07:36:45;6.20;99.90
54192;DHT22;40101;53.002;6.488;2023-02-01T07:39:10;6.50;99.90
54192;DHT22;40101;53.002;6.488;2023-02-01T07:41:36;7.10;99.90
54192;DHT22;40101;53.002;6.488;2023-02-01T07:44:02;6.30;99.90
54192;DHT22;40101;53.002;6.488;2023-02-01T07:46:27;6.50;99.90
54192;DHT22;40101;53.002;6.488;2023-02-01T07:48:53;6.30;99.90
54192;DHT22;40101;53.002;6.488;2023-02-01T07:51:22;6.30;99.90
54192;DHT22;40101;53.002;6.488;2023-02-01T07:57:09;6.30;99.90
54192;DHT22;40101;53.002;6.488;2023-02-01T07:59:37;6.30;99.90
54192;DHT22;40101;53.002;6.488;2023-02-01T08:02:32;6.30;99.90
54192;DHT22;40101;53.002;6.488;2023-02-01T08:04:58;6.20;99.90
54192;DHT22;40101;53.002;6.488;2023-02-01T08:07:29;6.20;99.90
54192;DHT22;40101;53.002;6.488;2023-02-01T08:09:55;6.30;99.90
54192;DHT22;40101;53.002;6.488;2023-02-01T08:12:21;6.30;99.90
54192;DHT22;40101;53.002;6.488;2023-02-01T08:14:46;6.30;99.90
54192;DHT22;40101;53.002;6.488;2023-02-01T08:17:12;6.60;99.90
54192;DHT22;40101;53.002;6.488;2023-02-01T08:19:38;6.70;99.90
54192;DHT22;40101;53.002;6.488;2023-02-01T08:22:04;6.40;99.90
54192;DHT22;40101;53.002;6.488;2023-02-01T08:24:33;6.30;99.90
54192;DHT22;40101;53.002;6.488;2023-02-01T08:27:01;6.40;99.90
54192;DHT22;40101;53.002;6.488;2023-02-01T08:29:27;6.40;99.90
54192;DHT22;40101;53.002;6.488;2023-02-01T08:31:55;6.40;99.90
54192;DHT22;40101;53.002;6.488;2023-02-01T08:34:21;6.50;99.90
54192;DHT22;40101;53.002;6.488;2023-02-01T08:36:46;6.70;99.90
54192;DHT22;40101;53.002;6.488;2023-02-01T08:39:12;6.50;99.90
54192;DHT22;40101;53.002;6.488;2023-02-01T08:41:38;6.50;99.90
54192;DHT22;40101;53.002;6.488;2023-02-01T08:44:04;6.50;99.90
54192;DHT22;40101;53.002;6.488;2023-02-01T08:46:30;6.60;99.90
54192;DHT22;40101;53.002;6.488;2023-02-01T08:48:55;6.60;99.90
54192;DHT22;40101;53.002;6.488;2023-02-01T08:51:22;6.70;99.90
54192;DHT22;40101;53.002;6.488;2023-02-01T08:53:49;6.60;99.90
54192;DHT22;40101;53.002;6.488;2023-02-01T08:56:16;6.60;99.90
54192;DHT22;40101;53.002;6.488;2023-02-01T08:58:42;6.70;99.90
54192;DHT22;40101;53.002;6.488;2023-02-01T09:01:14;6.70;99.90
54192;DHT22;40101;53.002;6.488;2023-02-01T09:03:40;6.70;99.90
54192;DHT22;40101;53.002;6.488;2023-02-01T09:06:09;6.70;99.90
54192;DHT22;40101;53.002;6.488;2023-02-01T09:08:36;6.70;99.90
54192;DHT22;40101;53.002;6.488;2023-02-01T09:11:09;6.70;99.90
54192;DHT22;40101;53.002;6.488;2023-02-01T09:13:36;6.70;99.90
54192;DHT22;40101;53.002;6.488;2023-02-01T09:16:02;6.70;99.90
54192;DHT22;40101;53.002;6.488;2023-02-01T09:18:28;6.70;99.90
54192;DHT22;40101;53.002;6.488;2023-02-01T09:20:53;6.70;99.90
54192;DHT22;40101;53.002;6.488;2023-02-01T09:23:19;6.70;99.90
54192;DHT22;40101;53.002;6.488;2023-02-01T09:25:48;6.80;99.90
54192;DHT22;40101;53.002;6.488;2023-02-01T09:28:17;6.70;99.90
54192;DHT22;40101;53.002;6.488;2023-02-01T09:30:43;6.70;99.90
54192;DHT22;40101;53.002;6.488;2023-02-01T09:33:09;6.70;99.90
54192;DHT22;40101;53.002;6.488;2023-02-01T09:35:34;6.70;99.90
54192;DHT22;40101;53.002;6.488;2023-02-01T09:38:00;6.70;99.90
54192;DHT22;40101;53.002;6.488;2023-02-01T09:40:26;6.40;99.90
54192;DHT22;40101;53.002;6.488;2023-02-01T09:46:27;6.70;99.90
54192;DHT22;40101;53.002;6.488;2023-02-01T09:48:56;6.70;99.90
54192;DHT22;40101;53.002;6.488;2023-02-01T09:51:37;6.70;99.90
54192;DHT22;40101;53.002;6.488;2023-02-01T09:54:16;6.70;99.90
54192;DHT22;40101;53.002;6.488;2023-02-01T09:56:53;6.60;99.90
54192;DHT22;40101;53.002;6.488;2023-02-01T09:59:26;6.60;99.90
54192;DHT22;40101;53.002;6.488;2023-02-01T10:01:56;6.50;99.90
54192;DHT22;40101;53.002;6.488;2023-02-01T10:04:24;6.50;99.90
54192;DHT22;40101;53.002;6.488;2023-02-01T10:25:59;6.40;99.90
54192;DHT22;40101;53.002;6.488;2023-02-01T10:28:27;6.50;99.90
54192;DHT22;40101;53.002;6.488;2023-02-01T10:30:57;6.50;99.90
54192;DHT22;40101;53.002;6.488;2023-02-01T10:33:26;6.50;99.90
54192;DHT22;40101;53.002;6.488;2023-02-01T10:38:32;6.50;99.90
54192;DHT22;40101;53.002;6.488;2023-02-01T10:41:15;6.60;99.90
54192;DHT22;40101;53.002;6.488;2023-02-01T10:43:43;6.70;99.90
54192;DHT22;40101;53.002;6.488;2023-02-01T10:46:10;6.60;99.90
54192;DHT22;40101;53.002;6.488;2023-02-01T10:48:36;7.00;99.90
54192;DHT22;40101;53.002;6.488;2023-02-01T10:51:12;6.70;99.90
54192;DHT22;40101;53.002;6.488;2023-02-01T10:53:53;6.80;99.90
54192;DHT22;40101;53.002;6.488;2023-02-01T10:56:25;6.90;99.90
54192;DHT22;40101;53.002;6.488;2023-02-01T10:59:06;6.90;99.90
54192;DHT22;40101;53.002;6.488;2023-02-01T11:01:38;7.00;99.90
54192;DHT22;40101;53.002;6.488;2023-02-01T11:04:25;7.30;99.90
54192;DHT22;40101;53.002;6.488;2023-02-01T11:07:05;7.00;99.90
54192;DHT22;40101;53.002;6.488;2023-02-01T11:09:38;7.00;99.90
54192;DHT22;40101;53.002;6.488;2023-02-01T11:12:27;7.00;99.90
54192;DHT22;40101;53.002;6.488;2023-02-01T11:14:50;7.00;99.90
54192;DHT22;40101;53.002;6.488;2023-02-01T11:17:26;7.00;99.90
54192;DHT22;40101;53.002;6.488;2023-02-01T11:19:58;7.00;99.90
54192;DHT22;40101;53.002;6.488;2023-02-01T11:22:26;7.00;99.90
54192;DHT22;40101;53.002;6.488;2023-02-01T11:24:53;7.00;99.90
54192;DHT22;40101;53.002;6.488;2023-02-01T11:27:22;7.10;99.90
54192;DHT22;40101;53.002;6.488;2023-02-01T11:29:53;7.10;99.90
54192;DHT22;40101;53.002;6.488;2023-02-01T11:32:22;7.20;99.90
54192;DHT22;40101;53.002;6.488;2023-02-01T11:34:59;7.30;99.90
54192;DHT22;40101;53.002;6.488;2023-02-01T11:37:39;7.30;99.90
54192;DHT22;40101;53.002;6.488;2023-02-01T11:43:07;7.20;99.90
54192;DHT22;40101;53.002;6.488;2023-02-01T11:45:33;7.10;99.90
54192;DHT22;40101;53.002;6.488;2023-02-01T11:48:11;7.00;99.90
54192;DHT22;40101;53.002;6.488;2023-02-01T11:56:36;6.90;99.90
54192;DHT22;40101;53.002;6.488;2023-02-01T12:01:56;7.00;99.90
54192;DHT22;40101;53.002;6.488;2023-02-01T12:10:39;7.20;99.90
54192;DHT22;40101;53.002;6.488;2023-02-01T12:19:00;7.60;99.90
54192;DHT22;40101;53.002;6.488;2023-02-01T12:24:53;7.60;99.90
54192;DHT22;40101;53.002;6.488;2023-02-01T12:30:17;7.60;99.90
54192;DHT22;40101;53.002;6.488;2023-02-01T12:44:24;8.60;99.90
54192;DHT22;40101;53.002;6.488;2023-02-01T12:47:24;8.60;99.90
54192;DHT22;40101;53.002;6.488;2023-02-01T12:50:00;8.50;99.90
54192;DHT22;40101;53.002;6.488;2023-02-01T12:52:47;8.50;99.90
54192;DHT22;40101;53.002;6.488;2023-02-01T12:57:43;8.20;99.90
54192;DHT22;40101;53.002;6.488;2023-02-01T13:03:03;8.10;99.90
54192;DHT22;40101;53.002;6.488;2023-02-01T13:05:49;8.10;99.90
54192;DHT22;40101;53.002;6.488;2023-02-01T13:08:30;8.20;99.90
54192;DHT22;40101;53.002;6.488;2023-02-01T13:11:13;8.30;99.90
54192;DHT22;40101;53.002;6.488;2023-02-01T13:16:54;8.40;99.90
54192;DHT22;40101;53.002;6.488;2023-02-01T13:19:41;8.50;99.90
54192;DHT22;40101;53.002;6.488;2023-02-01T13:22:19;8.60;99.90
54192;DHT22;40101;53.002;6.488;2023-02-01T13:27:27;9.30;99.90
54192;DHT22;40101;53.002;6.488;2023-02-01T13:33:14;8.30;99.90
54192;DHT22;40101;53.002;6.488;2023-02-01T13:38:50;8.20;99.90
54192;DHT22;40101;53.002;6.488;2023-02-01T13:41:31;8.20;99.90
54192;DHT22;40101;53.002;6.488;2023-02-01T13:44:46;8.20;99.90
54192;DHT22;40101;53.002;6.488;2023-02-01T13:47:26;8.20;99.90
54192;DHT22;40101;53.002;6.488;2023-02-01T13:49:56;8.20;99.90
54192;DHT22;40101;53.002;6.488;2023-02-01T13:52:36;8.40;99.90
54192;DHT22;40101;53.002;6.488;2023-02-01T13:57:48;8.10;99.90
54192;DHT22;40101;53.002;6.488;2023-02-01T14:03:06;8.00;99.90
54192;DHT22;40101;53.002;6.488;2023-02-01T14:10:55;8.00;99.90
54192;DHT22;40101;53.002;6.488;2023-02-01T14:13:28;8.20;99.90
54192;DHT22;40101;53.002;6.488;2023-02-01T14:21:32;8.30;99.90
54192;DHT22;40101;53.002;6.488;2023-02-01T14:24:31;8.30;99.90
54192;DHT22;40101;53.002;6.488;2023-02-01T14:29:37;8.20;99.90
54192;DHT22;40101;53.002;6.488;2023-02-01T14:32:20;8.30;99.90
54192;DHT22;40101;53.002;6.488;2023-02-01T14:42:26;8.30;99.90
54192;DHT22;40101;53.002;6.488;2023-02-01T14:44:54;8.30;99.90
54192;DHT22;40101;53.002;6.488;2023-02-01T14:52:33;8.10;99.90
54192;DHT22;40101;53.002;6.488;2023-02-01T14:55:04;8.00;99.90
54192;DHT22;40101;53.002;6.488;2023-02-01T14:57:33;7.90;99.90
54192;DHT22;40101;53.002;6.488;2023-02-01T15:02:36;7.80;99.90
54192;DHT22;40101;53.002;6.488;2023-02-01T15:05:10;7.90;99.90
54192;DHT22;40101;53.002;6.488;2023-02-01T15:07:40;7.70;99.90
54192;DHT22;40101;53.002;6.488;2023-02-01T15:10:06;7.60;99.90
54192;DHT22;40101;53.002;6.488;2023-02-01T15:12:32;7.60;99.90
54192;DHT22;40101;53.002;6.488;2023-02-01T15:15:20;7.60;99.90
54192;DHT22;40101;53.002;6.488;2023-02-01T15:20:25;7.50;99.90
54192;DHT22;40101;53.002;6.488;2023-02-01T15:22:59;7.80;99.90
54192;DHT22;40101;53.002;6.488;2023-02-01T15:25:31;7.50;99.90
54192;DHT22;40101;53.002;6.488;2023-02-01T15:27:57;7.60;99.90
54192;DHT22;40101;53.002;6.488;2023-02-01T15:30:26;7.60;99.90
54192;DHT22;40101;53.002;6.488;2023-02-01T15:33:05;7.60;99.90
54192;DHT22;40101;53.002;6.488;2023-02-01T15:35:38;7.60;99.90
54192;DHT22;40101;53.002;6.488;2023-02-01T15:46:18;7.70;99.90
54192;DHT22;40101;53.002;6.488;2023-02-01T15:48:56;7.70;99.90
54192;DHT22;40101;53.002;6.488;2023-02-01T15:51:25;7.70;99.90
54192;DHT22;40101;53.002;6.488;2023-02-01T15:54:31;8.20;99.90
54192;DHT22;40101;53.002;6.488;2023-02-01T15:57:01;7.70;99.90
54192;DHT22;40101;53.002;6.488;2023-02-01T15:59:51;7.60;99.90
54192;DHT22;40101;53.002;6.488;2023-02-01T16:02:37;7.60;99.90
54192;DHT22;40101;53.002;6.488;2023-02-01T16:05:36;7.60;99.90
54192;DHT22;40101;53.002;6.488;2023-02-01T16:08:19;7.50;99.90
54192;DHT22;40101;53.002;6.488;2023-02-01T16:14:07;7.40;99.90
54192;DHT22;40101;53.002;6.488;2023-02-01T16:16:33;7.80;99.90
54192;DHT22;40101;53.002;6.488;2023-02-01T16:19:01;7.60;99.90
54192;DHT22;40101;53.002;6.488;2023-02-01T16:21:27;7.50;99.90
54192;DHT22;40101;53.002;6.488;2023-02-01T16:23:54;7.90;99.90
54192;DHT22;40101;53.002;6.488;2023-02-01T16:26:23;7.40;99.90
54192;DHT22;40101;53.002;6.488;2023-02-01T16:28:57;7.30;99.90
54192;DHT22;40101;53.002;6.488;2023-02-01T16:31:41;7.40;99.90
54192;DHT22;40101;53.002;6.488;2023-02-01T16:34:16;7.20;99.90
54192;DHT22;40101;53.002;6.488;2023-02-01T16:37:05;6.80;99.90
54192;DHT22;40101;53.002;6.488;2023-02-01T16:43:27;7.00;99.90
54192;DHT22;40101;53.002;6.488;2023-02-01T16:46:31;7.30;99.90
54192;DHT22;40101;53.002;6.488;2023-02-01T16:50:00;6.90;99.90
54192;DHT22;40101;53.002;6.488;2023-02-01T16:53:03;6.80;99.90
54192;DHT22;40101;53.002;6.488;2023-02-01T16:55:39;7.50;99.90
54192;DHT22;40101;53.002;6.488;2023-02-01T16:58:04;7.40;99.90
54192;DHT22;40101;53.002;6.488;2023-02-01T17:00:47;6.90;99.90
54192;DHT22;40101;53.002;6.488;2023-02-01T17:03:13;6.60;99.90
54192;DHT22;40101;53.002;6.488;2023-02-01T17:05:44;6.60;99.90
54192;DHT22;40101;53.002;6.488;2023-02-01T17:08:15;6.50;99.90
54192;DHT22;40101;53.002;6.488;2023-02-01T17:10:48;6.50;99.90
54192;DHT22;40101;53.002;6.488;2023-02-01T17:13:15;6.50;99.90
54192;DHT22;40101;53.002;6.488;2023-02-01T17:15:49;7.60;99.90
54192;DHT22;40101;53.002;6.488;2023-02-01T17:18:17;6.90;99.90
54192;DHT22;40101;53.002;6.488;2023-02-01T17:20:43;6.80;99.90
54192;DHT22;40101;53.002;6.488;2023-02-01T17:23:16;6.90;99.90
54192;DHT22;40101;53.002;6.488;2023-02-01T17:25:42;6.50;99.90
54192;DHT22;40101;53.002;6.488;2023-02-01T17:28:09;6.40;99.90
54192;DHT22;40101;53.002;6.488;2023-02-01T17:30:36;6.70;99.90
54192;DHT22;40101;53.002;6.488;2023-02-01T17:33:05;7.00;99.90
54192;DHT22;40101;53.002;6.488;2023-02-01T17:35:32;6.40;99.90
54192;DHT22;40101;53.002;6.488;2023-02-01T17:37:59;6.40;99.90
54192;DHT22;40101;53.002;6.488;2023-02-01T17:40:25;7.70;99.90
54192;DHT22;40101;53.002;6.488;2023-02-01T17:42:52;7.00;99.90
54192;DHT22;40101;53.002;6.488;2023-02-01T17:45:34;6.70;99.90
54192;DHT22;40101;53.002;6.488;2023-02-01T17:48:04;6.30;99.90
54192;DHT22;40101;53.002;6.488;2023-02-01T17:50:31;6.40;99.90
54192;DHT22;40101;53.002;6.488;2023-02-01T17:52:57;6.40;99.90
54192;DHT22;40101;53.002;6.488;2023-02-01T17:55:36;7.60;99.90
54192;DHT22;40101;53.002;6.488;2023-02-01T17:58:05;6.70;99.90
54192;DHT22;40101;53.002;6.488;2023-02-01T18:03:48;6.90;99.90
54192;DHT22;40101;53.002;6.488;2023-02-01T18:06:20;6.60;99.90
54192;DHT22;40101;53.002;6.488;2023-02-01T18:08:46;7.20;99.90
54192;DHT22;40101;53.002;6.488;2023-02-01T18:11:20;6.30;99.90
54192;DHT22;40101;53.002;6.488;2023-02-01T18:13:48;6.30;99.90
54192;DHT22;40101;53.002;6.488;2023-02-01T18:16:22;6.90;99.90
54192;DHT22;40101;53.002;6.488;2023-02-01T18:18:51;6.20;99.90
54192;DHT22;40101;53.002;6.488;2023-02-01T18:21:18;6.80;99.90
54192;DHT22;40101;53.002;6.488;2023-02-01T18:23:44;6.20;99.90
54192;DHT22;40101;53.002;6.488;2023-02-01T18:26:12;6.70;99.90
54192;DHT22;40101;53.002;6.488;2023-02-01T18:28:43;6.50;99.90
54192;DHT22;40101;53.002;6.488;2023-02-01T18:31:41;5.90;99.90
54192;DHT22;40101;53.002;6.488;2023-02-01T18:34:09;6.30;99.90
54192;DHT22;40101;53.002;6.488;2023-02-01T18:36:50;7.10;99.90
54192;DHT22;40101;53.002;6.488;2023-02-01T18:46:02;6.00;99.90
54192;DHT22;40101;53.002;6.488;2023-02-01T18:48:28;6.00;99.90
54192;DHT22;40101;53.002;6.488;2023-02-01T18:50:54;6.00;99.90
54192;DHT22;40101;53.002;6.488;2023-02-01T18:53:22;5.90;99.90
54192;DHT22;40101;53.002;6.488;2023-02-01T18:55:55;6.50;99.90
54192;DHT22;40101;53.002;6.488;2023-02-01T18:58:21;6.00;99.90
54192;DHT22;40101;53.002;6.488;2023-02-01T19:00:52;6.70;99.90